sensor_id;sensor_type;location;lat;lon;timestamp;P1;durP1;ratioP1;P2;durP2;ratioP2
23078;SDS011;11707;50.830;4.364;2022-07-23T00:01:01;15.48;;;11.25;;
23078;SDS011;11707;50.830;4.364;2022-07-23T00:03:27;15.23;;;11.82;;
23078;SDS011;11707;50.830;4.364;2022-07-23T00:05:53;14.73;;;12.50;;
23078;SDS011;11707;50.830;4.364;2022-07-23T00:08:18;16.27;;;14.15;;
23078;SDS011;11707;50.830;4.364;2022-07-23T00:10:44;15.77;;;13.30;;
23078;SDS011;11707;50.830;4.364;2022-07-23T00:13:10;18.00;;;12.48;;
23078;SDS011;11707;50.830;4.364;2022-07-23T00:15:35;21.23;;;14.63;;
23078;SDS011;11707;50.830;4.364;2022-07-23T00:18:12;19.40;;;13.75;;
23078;SDS011;11707;50.830;4.364;2022-07-23T00:20:38;16.80;;;13.63;;
23078;SDS011;11707;50.830;4.364;2022-07-23T00:23:03;17.08;;;13.18;;
23078;SDS011;11707;50.830;4.364;2022-07-23T00:25:29;15.95;;;14.20;;
23078;SDS011;11707;50.830;4.364;2022-07-23T00:27:55;20.08;;;14.57;;
23078;SDS011;11707;50.830;4.364;2022-07-23T00:30:20;20.40;;;15.18;;
23078;SDS011;11707;50.830;4.364;2022-07-23T00:32:50;16.70;;;14.57;;
23078;SDS011;11707;50.830;4.364;2022-07-23T00:35:22;22.15;;;14.77;;
23078;SDS011;11707;50.830;4.364;2022-07-23T00:37:49;18.00;;;14.13;;
23078;SDS011;11707;50.830;4.364;2022-07-23T00:40:15;21.35;;;14.27;;
23078;SDS011;11707;50.830;4.364;2022-07-23T00:42:41;17.23;;;14.77;;
23078;SDS011;11707;50.830;4.364;2022-07-23T00:45:07;15.73;;;13.93;;
23078;SDS011;11707;50.830;4.364;2022-07-23T00:47:33;17.45;;;13.32;;
23078;SDS011;11707;50.830;4.364;2022-07-23T00:49:59;20.05;;;14.68;;
23078;SDS011;11707;50.830;4.364;2022-07-23T00:52:25;22.05;;;14.80;;
23078;SDS011;11707;50.830;4.364;2022-07-23T00:54:51;20.00;;;13.07;;
23078;SDS011;11707;50.830;4.364;2022-07-23T00:57:17;17.90;;;13.20;;
23078;SDS011;11707;50.830;4.364;2022-07-23T00:59:43;16.63;;;13.55;;
23078;SDS011;11707;50.830;4.364;2022-07-23T01:02:08;27.40;;;14.18;;
23078;SDS011;11707;50.830;4.364;2022-07-23T01:04:34;17.90;;;14.10;;
23078;SDS011;11707;50.830;4.364;2022-07-23T01:07:00;17.92;;;14.05;;
23078;SDS011;11707;50.830;4.364;2022-07-23T01:09:26;34.55;;;15.20;;
23078;SDS011;11707;50.830;4.364;2022-07-23T01:11:53;20.00;;;14.25;;
23078;SDS011;11707;50.830;4.364;2022-07-23T01:14:20;17.00;;;13.88;;
23078;SDS011;11707;50.830;4.364;2022-07-23T01:16:47;19.63;;;14.35;;
23078;SDS011;11707;50.830;4.364;2022-07-23T01:19:14;18.15;;;14.38;;
23078;SDS011;11707;50.830;4.364;2022-07-23T01:21:42;19.33;;;15.23;;
23078;SDS011;11707;50.830;4.364;2022-07-23T01:24:10;18.73;;;14.93;;
23078;SDS011;11707;50.830;4.364;2022-07-23T01:26:37;19.83;;;14.80;;
23078;SDS011;11707;50.830;4.364;2022-07-23T01:29:03;20.20;;;14.57;;
23078;SDS011;11707;50.830;4.364;2022-07-23T01:31:29;18.05;;;14.25;;
23078;SDS011;11707;50.830;4.364;2022-07-23T01:33:55;16.48;;;14.27;;
23078;SDS011;11707;50.830;4.364;2022-07-23T01:36:21;15.13;;;13.43;;
23078;SDS011;11707;50.830;4.364;2022-07-23T01:38:47;21.02;;;14.88;;
23078;SDS011;11707;50.830;4.364;2022-07-23T01:41:13;21.10;;;14.82;;
23078;SDS011;11707;50.830;4.364;2022-07-23T01:43:38;20.23;;;15.25;;
23078;SDS011;11707;50.830;4.364;2022-07-23T01:46:04;19.55;;;14.40;;
23078;SDS011;11707;50.830;4.364;2022-07-23T01:48:30;23.40;;;15.07;;
23078;SDS011;11707;50.830;4.364;2022-07-23T01:50:56;20.88;;;15.15;;
23078;SDS011;11707;50.830;4.364;2022-07-23T01:53:21;22.95;;;16.02;;
23078;SDS011;11707;50.830;4.364;2022-07-23T01:55:47;16.92;;;14.40;;
23078;SDS011;11707;50.830;4.364;2022-07-23T01:58:13;19.45;;;13.73;;
23078;SDS011;11707;50.830;4.364;2022-07-23T02:00:39;19.55;;;14.60;;
23078;SDS011;11707;50.830;4.364;2022-07-23T02:03:05;16.38;;;14.13;;
23078;SDS011;11707;50.830;4.364;2022-07-23T02:05:31;22.83;;;14.90;;
23078;SDS011;11707;50.830;4.364;2022-07-23T02:07:57;20.00;;;14.57;;
23078;SDS011;11707;50.830;4.364;2022-07-23T02:10:24;20.25;;;15.18;;
23078;SDS011;11707;50.830;4.364;2022-07-23T02:12:50;22.63;;;16.00;;
23078;SDS011;11707;50.830;4.364;2022-07-23T02:15:16;16.48;;;14.57;;
23078;SDS011;11707;50.830;4.364;2022-07-23T02:17:41;19.05;;;15.13;;
23078;SDS011;11707;50.830;4.364;2022-07-23T02:20:08;21.63;;;14.77;;
23078;SDS011;11707;50.830;4.364;2022-07-23T02:22:34;24.27;;;15.50;;
23078;SDS011;11707;50.830;4.364;2022-07-23T02:25:01;19.58;;;14.85;;
23078;SDS011;11707;50.830;4.364;2022-07-23T02:27:27;21.00;;;15.13;;
23078;SDS011;11707;50.830;4.364;2022-07-23T02:29:53;21.80;;;14.32;;
23078;SDS011;11707;50.830;4.364;2022-07-23T02:32:18;22.65;;;14.68;;
23078;SDS011;11707;50.830;4.364;2022-07-23T02:34:46;19.05;;;14.82;;
23078;SDS011;11707;50.830;4.364;2022-07-23T02:37:12;23.13;;;14.45;;
23078;SDS011;11707;50.830;4.364;2022-07-23T02:39:38;20.30;;;15.32;;
23078;SDS011;11707;50.830;4.364;2022-07-23T02:42:04;20.42;;;14.38;;
23078;SDS011;11707;50.830;4.364;2022-07-23T02:44:29;22.50;;;15.98;;
23078;SDS011;11707;50.830;4.364;2022-07-23T02:46:55;20.73;;;15.23;;
23078;SDS011;11707;50.830;4.364;2022-07-23T02:49:21;21.58;;;15.23;;
23078;SDS011;11707;50.830;4.364;2022-07-23T02:51:46;24.95;;;14.90;;
23078;SDS011;11707;50.830;4.364;2022-07-23T02:54:12;21.13;;;14.63;;
23078;SDS011;11707;50.830;4.364;2022-07-23T02:56:38;17.85;;;14.48;;
23078;SDS011;11707;50.830;4.364;2022-07-23T02:59:03;17.95;;;14.32;;
23078;SDS011;11707;50.830;4.364;2022-07-23T03:01:29;16.77;;;14.82;;
23078;SDS011;11707;50.830;4.364;2022-07-23T03:03:55;19.05;;;14.65;;
23078;SDS011;11707;50.830;4.364;2022-07-23T03:06:20;20.17;;;14.40;;
23078;SDS011;11707;50.830;4.364;2022-07-23T03:08:46;20.27;;;15.38;;
23078;SDS011;11707;50.830;4.364;2022-07-23T03:11:12;21.10;;;14.32;;
23078;SDS011;11707;50.830;4.364;2022-07-23T03:13:38;21.77;;;14.88;;
23078;SDS011;11707;50.830;4.364;2022-07-23T03:16:05;17.75;;;14.25;;
23078;SDS011;11707;50.830;4.364;2022-07-23T03:18:31;17.83;;;15.40;;
23078;SDS011;11707;50.830;4.364;2022-07-23T03:20:57;21.48;;;15.38;;
23078;SDS011;11707;50.830;4.364;2022-07-23T03:23:22;17.80;;;14.93;;
23078;SDS011;11707;50.830;4.364;2022-07-23T03:25:48;18.60;;;15.27;;
23078;SDS011;11707;50.830;4.364;2022-07-23T03:28:14;19.92;;;15.93;;
23078;SDS011;11707;50.830;4.364;2022-07-23T03:30:41;21.65;;;14.57;;
23078;SDS011;11707;50.830;4.364;2022-07-23T03:33:07;18.02;;;15.05;;
23078;SDS011;11707;50.830;4.364;2022-07-23T03:35:33;18.27;;;14.50;;
23078;SDS011;11707;50.830;4.364;2022-07-23T03:37:59;19.27;;;14.23;;
23078;SDS011;11707;50.830;4.364;2022-07-23T03:40:25;18.08;;;14.63;;
23078;SDS011;11707;50.830;4.364;2022-07-23T03:42:50;18.25;;;14.98;;
23078;SDS011;11707;50.830;4.364;2022-07-23T03:45:16;21.80;;;14.93;;
23078;SDS011;11707;50.830;4.364;2022-07-23T03:47:41;17.45;;;13.93;;
23078;SDS011;11707;50.830;4.364;2022-07-23T03:50:08;18.10;;;14.75;;
23078;SDS011;11707;50.830;4.364;2022-07-23T03:52:34;21.40;;;14.38;;
23078;SDS011;11707;50.830;4.364;2022-07-23T03:55:00;17.85;;;14.20;;
23078;SDS011;11707;50.830;4.364;2022-07-23T03:57:27;17.98;;;14.88;;
23078;SDS011;11707;50.830;4.364;2022-07-23T03:59:53;19.08;;;13.45;;
23078;SDS011;11707;50.830;4.364;2022-07-23T04:02:18;19.05;;;13.73;;
23078;SDS011;11707;50.830;4.364;2022-07-23T04:04:44;21.25;;;13.70;;
23078;SDS011;11707;50.830;4.364;2022-07-23T04:07:10;17.60;;;13.73;;
23078;SDS011;11707;50.830;4.364;2022-07-23T04:09:35;16.02;;;13.85;;
23078;SDS011;11707;50.830;4.364;2022-07-23T04:12:01;20.52;;;15.98;;
23078;SDS011;11707;50.830;4.364;2022-07-23T04:14:27;17.73;;;14.50;;
23078;SDS011;11707;50.830;4.364;2022-07-23T04:16:52;22.88;;;15.35;;
23078;SDS011;11707;50.830;4.364;2022-07-23T04:19:18;17.58;;;13.93;;
23078;SDS011;11707;50.830;4.364;2022-07-23T04:21:43;16.30;;;14.38;;
23078;SDS011;11707;50.830;4.364;2022-07-23T04:24:09;19.33;;;14.52;;
23078;SDS011;11707;50.830;4.364;2022-07-23T04:26:35;18.20;;;14.38;;
23078;SDS011;11707;50.830;4.364;2022-07-23T04:29:01;19.45;;;15.05;;
23078;SDS011;11707;50.830;4.364;2022-07-23T04:31:26;23.30;;;14.50;;
23078;SDS011;11707;50.830;4.364;2022-07-23T04:33:52;20.13;;;14.60;;
23078;SDS011;11707;50.830;4.364;2022-07-23T04:36:18;24.70;;;16.08;;
23078;SDS011;11707;50.830;4.364;2022-07-23T04:38:44;19.50;;;14.30;;
23078;SDS011;11707;50.830;4.364;2022-07-23T04:41:09;18.38;;;14.75;;
23078;SDS011;11707;50.830;4.364;2022-07-23T04:43:35;20.15;;;15.05;;
23078;SDS011;11707;50.830;4.364;2022-07-23T04:46:01;20.98;;;15.18;;
23078;SDS011;11707;50.830;4.364;2022-07-23T04:48:26;20.67;;;15.52;;
23078;SDS011;11707;50.830;4.364;2022-07-23T04:50:52;18.65;;;14.30;;
23078;SDS011;11707;50.830;4.364;2022-07-23T04:53:17;19.95;;;14.50;;
23078;SDS011;11707;50.830;4.364;2022-07-23T04:55:44;17.70;;;13.80;;
23078;SDS011;11707;50.830;4.364;2022-07-23T04:58:10;15.80;;;13.43;;
23078;SDS011;11707;50.830;4.364;2022-07-23T05:00:36;18.75;;;14.40;;
23078;SDS011;11707;50.830;4.364;2022-07-23T05:03:01;18.27;;;13.68;;
23078;SDS011;11707;50.830;4.364;2022-07-23T05:05:27;16.15;;;13.75;;
23078;SDS011;11707;50.830;4.364;2022-07-23T05:07:53;15.38;;;12.93;;
23078;SDS011;11707;50.830;4.364;2022-07-23T05:10:18;15.52;;;13.18;;
23078;SDS011;11707;50.830;4.364;2022-07-23T05:12:44;18.75;;;11.88;;
23078;SDS011;11707;50.830;4.364;2022-07-23T05:15:10;19.80;;;12.95;;
23078;SDS011;11707;50.830;4.364;2022-07-23T05:17:35;19.15;;;13.13;;
23078;SDS011;11707;50.830;4.364;2022-07-23T05:20:01;15.88;;;10.85;;
23078;SDS011;11707;50.830;4.364;2022-07-23T05:22:28;18.08;;;12.05;;
23078;SDS011;11707;50.830;4.364;2022-07-23T05:24:53;15.48;;;12.13;;
23078;SDS011;11707;50.830;4.364;2022-07-23T05:27:19;17.10;;;13.40;;
23078;SDS011;11707;50.830;4.364;2022-07-23T05:29:45;20.50;;;12.75;;
23078;SDS011;11707;50.830;4.364;2022-07-23T05:32:10;18.73;;;12.65;;
23078;SDS011;11707;50.830;4.364;2022-07-23T05:34:36;20.80;;;13.10;;
23078;SDS011;11707;50.830;4.364;2022-07-23T05:37:02;19.30;;;13.65;;
23078;SDS011;11707;50.830;4.364;2022-07-23T05:39:27;14.15;;;11.60;;
23078;SDS011;11707;50.830;4.364;2022-07-23T05:41:53;15.45;;;11.90;;
23078;SDS011;11707;50.830;4.364;2022-07-23T05:44:19;19.10;;;12.38;;
23078;SDS011;11707;50.830;4.364;2022-07-23T05:46:45;18.75;;;14.75;;
23078;SDS011;11707;50.830;4.364;2022-07-23T05:49:11;16.85;;;13.40;;
23078;SDS011;11707;50.830;4.364;2022-07-23T05:51:37;16.55;;;13.35;;
23078;SDS011;11707;50.830;4.364;2022-07-23T05:54:02;14.40;;;12.00;;
23078;SDS011;11707;50.830;4.364;2022-07-23T05:56:28;15.68;;;12.20;;
23078;SDS011;11707;50.830;4.364;2022-07-23T05:58:54;17.83;;;13.00;;
23078;SDS011;11707;50.830;4.364;2022-07-23T06:01:19;16.90;;;12.88;;
23078;SDS011;11707;50.830;4.364;2022-07-23T06:03:45;14.85;;;12.68;;
23078;SDS011;11707;50.830;4.364;2022-07-23T06:06:11;17.48;;;12.98;;
23078;SDS011;11707;50.830;4.364;2022-07-23T06:08:36;19.75;;;12.40;;
23078;SDS011;11707;50.830;4.364;2022-07-23T06:11:02;20.70;;;13.70;;
23078;SDS011;11707;50.830;4.364;2022-07-23T06:13:28;16.67;;;12.38;;
23078;SDS011;11707;50.830;4.364;2022-07-23T06:15:53;16.55;;;12.57;;
23078;SDS011;11707;50.830;4.364;2022-07-23T06:18:19;19.77;;;15.00;;
23078;SDS011;11707;50.830;4.364;2022-07-23T06:20:45;17.33;;;12.13;;
23078;SDS011;11707;50.830;4.364;2022-07-23T06:23:10;16.75;;;12.48;;
23078;SDS011;11707;50.830;4.364;2022-07-23T06:25:37;15.07;;;12.65;;
23078;SDS011;11707;50.830;4.364;2022-07-23T06:28:03;17.48;;;13.70;;
23078;SDS011;11707;50.830;4.364;2022-07-23T06:30:29;16.65;;;13.27;;
23078;SDS011;11707;50.830;4.364;2022-07-23T06:32:54;21.65;;;13.02;;
23078;SDS011;11707;50.830;4.364;2022-07-23T06:35:20;17.92;;;13.65;;
23078;SDS011;11707;50.830;4.364;2022-07-23T06:37:46;17.60;;;12.38;;
23078;SDS011;11707;50.830;4.364;2022-07-23T06:40:12;17.17;;;12.85;;
23078;SDS011;11707;50.830;4.364;2022-07-23T06:42:38;15.48;;;12.23;;
23078;SDS011;11707;50.830;4.364;2022-07-23T06:45:04;13.90;;;12.02;;
23078;SDS011;11707;50.830;4.364;2022-07-23T06:47:33;21.88;;;12.82;;
23078;SDS011;11707;50.830;4.364;2022-07-23T06:49:59;17.08;;;12.23;;
23078;SDS011;11707;50.830;4.364;2022-07-23T06:52:25;21.23;;;12.95;;
23078;SDS011;11707;50.830;4.364;2022-07-23T06:54:52;14.63;;;10.23;;
23078;SDS011;11707;50.830;4.364;2022-07-23T06:57:18;13.50;;;11.13;;
23078;SDS011;11707;50.830;4.364;2022-07-23T06:59:43;18.27;;;12.93;;
23078;SDS011;11707;50.830;4.364;2022-07-23T07:02:09;15.75;;;11.13;;
23078;SDS011;11707;50.830;4.364;2022-07-23T07:04:35;16.40;;;12.65;;
23078;SDS011;11707;50.830;4.364;2022-07-23T07:07:01;14.65;;;11.70;;
23078;SDS011;11707;50.830;4.364;2022-07-23T07:09:26;15.77;;;11.30;;
23078;SDS011;11707;50.830;4.364;2022-07-23T07:11:52;15.30;;;12.00;;
23078;SDS011;11707;50.830;4.364;2022-07-23T07:14:18;22.42;;;12.55;;
23078;SDS011;11707;50.830;4.364;2022-07-23T07:16:43;16.75;;;11.43;;
23078;SDS011;11707;50.830;4.364;2022-07-23T07:19:09;13.60;;;11.27;;
23078;SDS011;11707;50.830;4.364;2022-07-23T07:21:35;16.33;;;10.52;;
23078;SDS011;11707;50.830;4.364;2022-07-23T07:24:00;13.98;;;10.88;;
23078;SDS011;11707;50.830;4.364;2022-07-23T07:26:26;13.40;;;10.48;;
23078;SDS011;11707;50.830;4.364;2022-07-23T07:28:52;17.25;;;11.60;;
23078;SDS011;11707;50.830;4.364;2022-07-23T07:31:17;14.13;;;10.02;;
23078;SDS011;11707;50.830;4.364;2022-07-23T07:33:43;15.93;;;11.00;;
23078;SDS011;11707;50.830;4.364;2022-07-23T07:36:09;16.88;;;10.98;;
23078;SDS011;11707;50.830;4.364;2022-07-23T07:38:35;12.93;;;9.85;;
23078;SDS011;11707;50.830;4.364;2022-07-23T07:41:00;20.27;;;10.77;;
23078;SDS011;11707;50.830;4.364;2022-07-23T07:43:26;14.77;;;10.38;;
23078;SDS011;11707;50.830;4.364;2022-07-23T07:45:52;13.73;;;10.02;;
23078;SDS011;11707;50.830;4.364;2022-07-23T07:48:18;14.85;;;10.27;;
23078;SDS011;11707;50.830;4.364;2022-07-23T07:50:43;12.95;;;9.40;;
23078;SDS011;11707;50.830;4.364;2022-07-23T07:53:09;12.50;;;9.13;;
23078;SDS011;11707;50.830;4.364;2022-07-23T07:55:35;13.63;;;8.95;;
23078;SDS011;11707;50.830;4.364;2022-07-23T07:58:00;13.52;;;9.32;;
23078;SDS011;11707;50.830;4.364;2022-07-23T08:00:26;11.93;;;9.73;;
23078;SDS011;11707;50.830;4.364;2022-07-23T08:02:52;15.30;;;8.80;;
23078;SDS011;11707;50.830;4.364;2022-07-23T08:05:23;16.45;;;9.50;;
23078;SDS011;11707;50.830;4.364;2022-07-23T08:07:50;16.23;;;9.77;;
23078;SDS011;11707;50.830;4.364;2022-07-23T08:10:16;13.90;;;9.43;;
23078;SDS011;11707;50.830;4.364;2022-07-23T08:12:46;13.98;;;8.45;;
23078;SDS011;11707;50.830;4.364;2022-07-23T08:15:17;17.52;;;8.52;;
23078;SDS011;11707;50.830;4.364;2022-07-23T08:17:44;11.23;;;7.90;;
23078;SDS011;11707;50.830;4.364;2022-07-23T08:20:12;19.92;;;8.77;;
23078;SDS011;11707;50.830;4.364;2022-07-23T08:22:49;12.80;;;8.18;;
23078;SDS011;11707;50.830;4.364;2022-07-23T08:25:19;12.93;;;7.90;;
23078;SDS011;11707;50.830;4.364;2022-07-23T08:27:47;11.05;;;7.32;;
23078;SDS011;11707;50.830;4.364;2022-07-23T08:30:14;12.15;;;8.98;;
23078;SDS011;11707;50.830;4.364;2022-07-23T08:32:48;13.50;;;8.15;;
23078;SDS011;11707;50.830;4.364;2022-07-23T08:35:13;12.25;;;8.27;;
23078;SDS011;11707;50.830;4.364;2022-07-23T08:37:39;13.60;;;8.38;;
23078;SDS011;11707;50.830;4.364;2022-07-23T08:40:05;11.77;;;8.18;;
23078;SDS011;11707;50.830;4.364;2022-07-23T08:42:32;12.38;;;9.23;;
23078;SDS011;11707;50.830;4.364;2022-07-23T08:45:00;13.02;;;9.15;;
23078;SDS011;11707;50.830;4.364;2022-07-23T08:47:28;14.57;;;7.32;;
23078;SDS011;11707;50.830;4.364;2022-07-23T08:49:54;11.10;;;8.93;;
23078;SDS011;11707;50.830;4.364;2022-07-23T08:52:21;12.35;;;8.07;;
23078;SDS011;11707;50.830;4.364;2022-07-23T08:54:48;11.43;;;8.93;;
23078;SDS011;11707;50.830;4.364;2022-07-23T08:57:14;11.85;;;7.97;;
23078;SDS011;11707;50.830;4.364;2022-07-23T08:59:43;12.60;;;8.15;;
23078;SDS011;11707;50.830;4.364;2022-07-23T09:02:15;15.70;;;10.63;;
23078;SDS011;11707;50.830;4.364;2022-07-23T09:04:41;13.13;;;8.40;;
23078;SDS011;11707;50.830;4.364;2022-07-23T09:07:07;11.88;;;8.07;;
23078;SDS011;11707;50.830;4.364;2022-07-23T09:09:33;11.57;;;8.75;;
23078;SDS011;11707;50.830;4.364;2022-07-23T09:12:06;15.45;;;8.85;;
23078;SDS011;11707;50.830;4.364;2022-07-23T09:14:41;12.50;;;7.72;;
23078;SDS011;11707;50.830;4.364;2022-07-23T09:17:12;16.17;;;8.18;;
23078;SDS011;11707;50.830;4.364;2022-07-23T09:19:40;11.57;;;8.48;;
23078;SDS011;11707;50.830;4.364;2022-07-23T09:22:25;10.77;;;7.13;;
23078;SDS011;11707;50.830;4.364;2022-07-23T09:25:05;12.98;;;8.52;;
23078;SDS011;11707;50.830;4.364;2022-07-23T09:27:52;11.68;;;8.35;;
23078;SDS011;11707;50.830;4.364;2022-07-23T09:30:23;10.55;;;7.70;;
23078;SDS011;11707;50.830;4.364;2022-07-23T09:33:12;13.02;;;8.68;;
23078;SDS011;11707;50.830;4.364;2022-07-23T09:35:47;10.90;;;7.95;;
23078;SDS011;11707;50.830;4.364;2022-07-23T09:38:21;14.90;;;6.68;;
23078;SDS011;11707;50.830;4.364;2022-07-23T09:41:05;13.02;;;7.32;;
23078;SDS011;11707;50.830;4.364;2022-07-23T09:43:34;10.80;;;6.60;;
23078;SDS011;11707;50.830;4.364;2022-07-23T09:49:38;10.07;;;6.18;;
23078;SDS011;11707;50.830;4.364;2022-07-23T09:51:58;10.00;;;5.78;;
23078;SDS011;11707;50.830;4.364;2022-07-23T09:56:59;9.88;;;6.43;;
23078;SDS011;11707;50.830;4.364;2022-07-23T09:59:31;10.65;;;5.82;;
23078;SDS011;11707;50.830;4.364;2022-07-23T10:01:59;11.05;;;6.50;;
23078;SDS011;11707;50.830;4.364;2022-07-23T10:04:26;11.18;;;7.32;;
23078;SDS011;11707;50.830;4.364;2022-07-23T10:06:54;7.63;;;5.32;;
23078;SDS011;11707;50.830;4.364;2022-07-23T10:09:26;12.85;;;5.57;;
23078;SDS011;11707;50.830;4.364;2022-07-23T10:11:57;8.75;;;6.25;;
23078;SDS011;11707;50.830;4.364;2022-07-23T10:14:40;8.60;;;6.25;;
23078;SDS011;11707;50.830;4.364;2022-07-23T10:17:07;9.18;;;6.03;;
23078;SDS011;11707;50.830;4.364;2022-07-23T10:19:33;8.55;;;5.68;;
23078;SDS011;11707;50.830;4.364;2022-07-23T10:22:00;8.75;;;6.05;;
23078;SDS011;11707;50.830;4.364;2022-07-23T10:30:04;8.48;;;5.20;;
23078;SDS011;11707;50.830;4.364;2022-07-23T10:35:18;9.07;;;5.60;;
23078;SDS011;11707;50.830;4.364;2022-07-23T10:38:10;6.13;;;5.00;;
23078;SDS011;11707;50.830;4.364;2022-07-23T10:41:04;9.52;;;4.43;;
23078;SDS011;11707;50.830;4.364;2022-07-23T10:43:31;6.97;;;4.90;;
23078;SDS011;11707;50.830;4.364;2022-07-23T10:46:42;7.35;;;5.22;;
23078;SDS011;11707;50.830;4.364;2022-07-23T10:48:45;6.93;;;4.90;;
23078;SDS011;11707;50.830;4.364;2022-07-23T10:54:46;9.40;;;4.72;;
23078;SDS011;11707;50.830;4.364;2022-07-23T10:57:15;9.07;;;5.35;;
23078;SDS011;11707;50.830;4.364;2022-07-23T11:02:27;10.85;;;6.00;;
23078;SDS011;11707;50.830;4.364;2022-07-23T11:04:56;8.52;;;5.78;;
23078;SDS011;11707;50.830;4.364;2022-07-23T11:07:25;10.68;;;5.43;;
23078;SDS011;11707;50.830;4.364;2022-07-23T11:09:50;8.98;;;4.90;;
23078;SDS011;11707;50.830;4.364;2022-07-23T11:17:26;9.13;;;4.88;;
23078;SDS011;11707;50.830;4.364;2022-07-23T11:22:38;8.32;;;5.18;;
23078;SDS011;11707;50.830;4.364;2022-07-23T11:27:44;10.25;;;5.05;;
23078;SDS011;11707;50.830;4.364;2022-07-23T11:32:52;9.98;;;5.93;;
23078;SDS011;11707;50.830;4.364;2022-07-23T11:35:23;9.07;;;5.50;;
23078;SDS011;11707;50.830;4.364;2022-07-23T11:37:52;10.35;;;4.47;;
23078;SDS011;11707;50.830;4.364;2022-07-23T11:40:23;32.70;;;7.45;;
23078;SDS011;11707;50.830;4.364;2022-07-23T11:43:03;10.35;;;6.43;;
23078;SDS011;11707;50.830;4.364;2022-07-23T11:45:38;8.40;;;6.10;;
23078;SDS011;11707;50.830;4.364;2022-07-23T11:48:05;8.68;;;6.03;;
23078;SDS011;11707;50.830;4.364;2022-07-23T11:50:33;11.48;;;6.60;;
23078;SDS011;11707;50.830;4.364;2022-07-23T11:52:59;8.38;;;5.75;;
23078;SDS011;11707;50.830;4.364;2022-07-23T11:55:25;10.35;;;7.75;;
23078;SDS011;11707;50.830;4.364;2022-07-23T11:57:51;9.07;;;6.22;;
23078;SDS011;11707;50.830;4.364;2022-07-23T12:00:19;9.05;;;5.97;;
23078;SDS011;11707;50.830;4.364;2022-07-23T12:02:49;8.48;;;6.10;;
23078;SDS011;11707;50.830;4.364;2022-07-23T12:05:17;13.20;;;8.20;;
23078;SDS011;11707;50.830;4.364;2022-07-23T12:07:51;8.98;;;6.13;;
23078;SDS011;11707;50.830;4.364;2022-07-23T12:10:26;8.32;;;6.32;;
23078;SDS011;11707;50.830;4.364;2022-07-23T12:13:01;10.77;;;6.10;;
23078;SDS011;11707;50.830;4.364;2022-07-23T12:15:30;8.45;;;6.68;;
23078;SDS011;11707;50.830;4.364;2022-07-23T12:18:01;8.80;;;6.50;;
23078;SDS011;11707;50.830;4.364;2022-07-23T12:20:29;12.85;;;7.63;;
23078;SDS011;11707;50.830;4.364;2022-07-23T12:22:58;12.18;;;6.03;;
23078;SDS011;11707;50.830;4.364;2022-07-23T12:25:27;9.55;;;6.47;;
23078;SDS011;11707;50.830;4.364;2022-07-23T12:28:03;7.50;;;6.25;;
23078;SDS011;11707;50.830;4.364;2022-07-23T12:30:32;11.18;;;6.97;;
23078;SDS011;11707;50.830;4.364;2022-07-23T12:33:03;12.77;;;6.05;;
23078;SDS011;11707;50.830;4.364;2022-07-23T12:35:31;8.60;;;5.82;;
23078;SDS011;11707;50.830;4.364;2022-07-23T12:38:08;9.73;;;6.57;;
23078;SDS011;11707;50.830;4.364;2022-07-23T12:40:37;10.70;;;6.63;;
23078;SDS011;11707;50.830;4.364;2022-07-23T12:43:08;7.60;;;5.75;;
23078;SDS011;11707;50.830;4.364;2022-07-23T12:45:55;8.43;;;6.68;;
23078;SDS011;11707;50.830;4.364;2022-07-23T12:48:38;9.98;;;6.72;;
23078;SDS011;11707;50.830;4.364;2022-07-23T12:51:16;10.50;;;6.22;;
23078;SDS011;11707;50.830;4.364;2022-07-23T12:53:44;7.20;;;5.10;;
23078;SDS011;11707;50.830;4.364;2022-07-23T12:56:20;8.10;;;4.65;;
23078;SDS011;11707;50.830;4.364;2022-07-23T13:03:56;6.32;;;5.25;;
23078;SDS011;11707;50.830;4.364;2022-07-23T13:06:34;9.32;;;4.93;;
23078;SDS011;11707;50.830;4.364;2022-07-23T13:09:01;10.10;;;5.43;;
23078;SDS011;11707;50.830;4.364;2022-07-23T13:11:28;7.53;;;4.68;;
23078;SDS011;11707;50.830;4.364;2022-07-23T13:13:54;10.00;;;4.97;;
23078;SDS011;11707;50.830;4.364;2022-07-23T13:16:20;5.22;;;3.55;;
23078;SDS011;11707;50.830;4.364;2022-07-23T13:18:45;6.55;;;4.10;;
23078;SDS011;11707;50.830;4.364;2022-07-23T13:21:11;4.85;;;3.33;;
23078;SDS011;11707;50.830;4.364;2022-07-23T13:23:37;4.88;;;3.97;;
23078;SDS011;11707;50.830;4.364;2022-07-23T13:26:02;6.53;;;4.15;;
23078;SDS011;11707;50.830;4.364;2022-07-23T13:28:28;6.18;;;3.50;;
23078;SDS011;11707;50.830;4.364;2022-07-23T13:30:55;8.70;;;3.58;;
23078;SDS011;11707;50.830;4.364;2022-07-23T13:33:22;6.55;;;4.07;;
23078;SDS011;11707;50.830;4.364;2022-07-23T13:35:50;7.25;;;5.45;;
23078;SDS011;11707;50.830;4.364;2022-07-23T13:38:17;4.60;;;3.53;;
23078;SDS011;11707;50.830;4.364;2022-07-23T13:40:45;5.32;;;3.50;;
23078;SDS011;11707;50.830;4.364;2022-07-23T13:43:13;10.50;;;6.00;;
23078;SDS011;11707;50.830;4.364;2022-07-23T13:45:41;7.97;;;4.10;;
23078;SDS011;11707;50.830;4.364;2022-07-23T13:48:08;7.90;;;3.10;;
23078;SDS011;11707;50.830;4.364;2022-07-23T13:50:34;5.50;;;3.80;;
23078;SDS011;11707;50.830;4.364;2022-07-23T13:53:05;6.13;;;3.78;;
23078;SDS011;11707;50.830;4.364;2022-07-23T13:55:32;6.40;;;3.42;;
23078;SDS011;11707;50.830;4.364;2022-07-23T13:57:58;10.38;;;6.22;;
23078;SDS011;11707;50.830;4.364;2022-07-23T14:00:24;9.27;;;4.05;;
23078;SDS011;11707;50.830;4.364;2022-07-23T14:02:51;5.20;;;3.33;;
23078;SDS011;11707;50.830;4.364;2022-07-23T14:05:17;5.65;;;3.47;;
23078;SDS011;11707;50.830;4.364;2022-07-23T14:07:43;5.78;;;3.10;;
23078;SDS011;11707;50.830;4.364;2022-07-23T14:10:11;8.35;;;5.53;;
23078;SDS011;11707;50.830;4.364;2022-07-23T14:12:38;5.78;;;3.30;;
23078;SDS011;11707;50.830;4.364;2022-07-23T14:15:04;7.25;;;3.67;;
23078;SDS011;11707;50.830;4.364;2022-07-23T14:17:31;5.65;;;3.83;;
23078;SDS011;11707;50.830;4.364;2022-07-23T14:19:57;5.65;;;3.08;;
23078;SDS011;11707;50.830;4.364;2022-07-23T14:22:24;5.18;;;3.15;;
23078;SDS011;11707;50.830;4.364;2022-07-23T14:24:50;7.25;;;3.33;;
23078;SDS011;11707;50.830;4.364;2022-07-23T14:27:16;10.20;;;5.43;;
23078;SDS011;11707;50.830;4.364;2022-07-23T14:29:42;8.52;;;4.65;;
23078;SDS011;11707;50.830;4.364;2022-07-23T14:32:08;6.80;;;4.00;;
23078;SDS011;11707;50.830;4.364;2022-07-23T14:34:34;7.15;;;3.45;;
23078;SDS011;11707;50.830;4.364;2022-07-23T14:37:00;4.57;;;3.67;;
23078;SDS011;11707;50.830;4.364;2022-07-23T14:39:26;7.30;;;4.03;;
23078;SDS011;11707;50.830;4.364;2022-07-23T14:41:52;5.65;;;3.45;;
23078;SDS011;11707;50.830;4.364;2022-07-23T14:44:17;5.75;;;3.08;;
23078;SDS011;11707;50.830;4.364;2022-07-23T14:46:43;9.23;;;3.88;;
23078;SDS011;11707;50.830;4.364;2022-07-23T14:49:09;5.38;;;3.63;;
23078;SDS011;11707;50.830;4.364;2022-07-23T14:51:35;4.05;;;3.55;;
23078;SDS011;11707;50.830;4.364;2022-07-23T14:54:02;6.38;;;3.70;;
23078;SDS011;11707;50.830;4.364;2022-07-23T14:56:28;4.55;;;3.50;;
23078;SDS011;11707;50.830;4.364;2022-07-23T14:58:54;9.02;;;4.88;;
23078;SDS011;11707;50.830;4.364;2022-07-23T15:01:21;5.25;;;3.55;;
23078;SDS011;11707;50.830;4.364;2022-07-23T15:03:47;6.38;;;3.30;;
23078;SDS011;11707;50.830;4.364;2022-07-23T15:06:13;6.60;;;3.72;;
23078;SDS011;11707;50.830;4.364;2022-07-23T15:08:40;4.55;;;4.10;;
23078;SDS011;11707;50.830;4.364;2022-07-23T15:11:06;6.00;;;3.75;;